sensor_id;sensor_type;location;lat;lon;timestamp;P1;durP1;ratioP1;P2;durP2;ratioP2
12900;SDS011;6518;50.930;5.344;2022-07-23T00:00:06;9.55;;;7.25;;
12900;SDS011;6518;50.930;5.344;2022-07-23T00:02:35;8.63;;;6.95;;
12900;SDS011;6518;50.930;5.344;2022-07-23T00:05:03;8.70;;;7.63;;
12900;SDS011;6518;50.930;5.344;2022-07-23T00:07:30;10.13;;;7.65;;
12900;SDS011;6518;50.930;5.344;2022-07-23T00:09:57;9.93;;;7.70;;
12900;SDS011;6518;50.930;5.344;2022-07-23T00:12:24;9.02;;;7.70;;
12900;SDS011;6518;50.930;5.344;2022-07-23T00:14:50;10.55;;;8.23;;
12900;SDS011;6518;50.930;5.344;2022-07-23T00:17:18;9.50;;;7.50;;
12900;SDS011;6518;50.930;5.344;2022-07-23T00:19:46;12.13;;;7.90;;
12900;SDS011;6518;50.930;5.344;2022-07-23T00:22:13;9.43;;;7.43;;
12900;SDS011;6518;50.930;5.344;2022-07-23T00:24:40;9.30;;;6.88;;
12900;SDS011;6518;50.930;5.344;2022-07-23T00:27:07;8.30;;;7.50;;
12900;SDS011;6518;50.930;5.344;2022-07-23T00:29:34;8.93;;;7.47;;
12900;SDS011;6518;50.930;5.344;2022-07-23T00:32:01;12.88;;;8.48;;
12900;SDS011;6518;50.930;5.344;2022-07-23T00:34:28;10.90;;;7.80;;
12900;SDS011;6518;50.930;5.344;2022-07-23T00:36:56;8.43;;;7.63;;
12900;SDS011;6518;50.930;5.344;2022-07-23T00:39:23;8.40;;;7.55;;
12900;SDS011;6518;50.930;5.344;2022-07-23T00:41:53;10.15;;;7.75;;
12900;SDS011;6518;50.930;5.344;2022-07-23T00:44:20;8.45;;;7.38;;
12900;SDS011;6518;50.930;5.344;2022-07-23T00:46:49;11.07;;;7.95;;
12900;SDS011;6518;50.930;5.344;2022-07-23T00:49:19;9.23;;;7.93;;
12900;SDS011;6518;50.930;5.344;2022-07-23T00:51:46;9.98;;;7.63;;
12900;SDS011;6518;50.930;5.344;2022-07-23T00:54:16;10.30;;;7.97;;
12900;SDS011;6518;50.930;5.344;2022-07-23T00:56:44;8.82;;;7.25;;
12900;SDS011;6518;50.930;5.344;2022-07-23T00:59:12;10.90;;;7.53;;
12900;SDS011;6518;50.930;5.344;2022-07-23T01:01:40;12.20;;;7.88;;
12900;SDS011;6518;50.930;5.344;2022-07-23T01:04:09;10.40;;;7.53;;
12900;SDS011;6518;50.930;5.344;2022-07-23T01:06:36;9.52;;;8.15;;
12900;SDS011;6518;50.930;5.344;2022-07-23T01:09:04;9.52;;;7.57;;
12900;SDS011;6518;50.930;5.344;2022-07-23T01:11:35;10.23;;;9.20;;
12900;SDS011;6518;50.930;5.344;2022-07-23T01:14:11;10.32;;;9.00;;
12900;SDS011;6518;50.930;5.344;2022-07-23T01:16:39;9.20;;;8.10;;
12900;SDS011;6518;50.930;5.344;2022-07-23T01:19:06;11.25;;;8.35;;
12900;SDS011;6518;50.930;5.344;2022-07-23T01:21:37;10.48;;;8.30;;
12900;SDS011;6518;50.930;5.344;2022-07-23T01:24:07;9.07;;;7.75;;
12900;SDS011;6518;50.930;5.344;2022-07-23T01:26:35;9.27;;;8.32;;
12900;SDS011;6518;50.930;5.344;2022-07-23T01:29:02;10.25;;;8.52;;
12900;SDS011;6518;50.930;5.344;2022-07-23T01:31:29;11.57;;;8.80;;
12900;SDS011;6518;50.930;5.344;2022-07-23T01:33:57;11.27;;;8.23;;
12900;SDS011;6518;50.930;5.344;2022-07-23T01:36:24;9.25;;;7.43;;
12900;SDS011;6518;50.930;5.344;2022-07-23T01:38:51;9.10;;;8.20;;
12900;SDS011;6518;50.930;5.344;2022-07-23T01:41:20;10.68;;;8.45;;
12900;SDS011;6518;50.930;5.344;2022-07-23T01:43:47;7.57;;;6.88;;
12900;SDS011;6518;50.930;5.344;2022-07-23T01:46:14;11.57;;;8.35;;
12900;SDS011;6518;50.930;5.344;2022-07-23T01:48:41;9.82;;;7.55;;
12900;SDS011;6518;50.930;5.344;2022-07-23T01:51:08;8.90;;;7.93;;
12900;SDS011;6518;50.930;5.344;2022-07-23T01:53:35;11.23;;;8.10;;
12900;SDS011;6518;50.930;5.344;2022-07-23T01:56:02;11.18;;;8.25;;
12900;SDS011;6518;50.930;5.344;2022-07-23T01:58:31;12.60;;;8.35;;
12900;SDS011;6518;50.930;5.344;2022-07-23T02:00:59;9.82;;;8.57;;
12900;SDS011;6518;50.930;5.344;2022-07-23T02:03:26;8.80;;;7.80;;
12900;SDS011;6518;50.930;5.344;2022-07-23T02:05:53;9.02;;;8.10;;
12900;SDS011;6518;50.930;5.344;2022-07-23T02:08:20;10.38;;;8.75;;
12900;SDS011;6518;50.930;5.344;2022-07-23T02:10:47;12.20;;;9.15;;
12900;SDS011;6518;50.930;5.344;2022-07-23T02:13:16;11.80;;;8.38;;
12900;SDS011;6518;50.930;5.344;2022-07-23T02:15:44;10.57;;;8.77;;
12900;SDS011;6518;50.930;5.344;2022-07-23T02:18:11;10.35;;;9.25;;
12900;SDS011;6518;50.930;5.344;2022-07-23T02:20:38;9.80;;;8.80;;
12900;SDS011;6518;50.930;5.344;2022-07-23T02:23:05;9.73;;;8.38;;
12900;SDS011;6518;50.930;5.344;2022-07-23T02:25:32;9.18;;;7.78;;
12900;SDS011;6518;50.930;5.344;2022-07-23T02:28:00;10.93;;;8.77;;
12900;SDS011;6518;50.930;5.344;2022-07-23T02:30:27;11.02;;;8.90;;
12900;SDS011;6518;50.930;5.344;2022-07-23T02:32:55;11.20;;;8.77;;
12900;SDS011;6518;50.930;5.344;2022-07-23T02:35:22;10.23;;;7.95;;
12900;SDS011;6518;50.930;5.344;2022-07-23T02:37:49;9.63;;;8.20;;
12900;SDS011;6518;50.930;5.344;2022-07-23T02:40:16;8.55;;;7.57;;
12900;SDS011;6518;50.930;5.344;2022-07-23T02:42:43;10.13;;;9.13;;
12900;SDS011;6518;50.930;5.344;2022-07-23T02:45:11;12.40;;;9.15;;
12900;SDS011;6518;50.930;5.344;2022-07-23T02:47:38;9.85;;;8.50;;
12900;SDS011;6518;50.930;5.344;2022-07-23T02:50:07;9.77;;;8.73;;
12900;SDS011;6518;50.930;5.344;2022-07-23T02:52:34;9.10;;;8.20;;
12900;SDS011;6518;50.930;5.344;2022-07-23T02:55:01;10.63;;;8.90;;
12900;SDS011;6518;50.930;5.344;2022-07-23T02:57:28;12.55;;;9.82;;
12900;SDS011;6518;50.930;5.344;2022-07-23T02:59:56;10.30;;;8.23;;
12900;SDS011;6518;50.930;5.344;2022-07-23T03:02:23;11.25;;;8.05;;
12900;SDS011;6518;50.930;5.344;2022-07-23T03:04:50;11.48;;;8.10;;
12900;SDS011;6518;50.930;5.344;2022-07-23T03:07:18;10.90;;;8.70;;
12900;SDS011;6518;50.930;5.344;2022-07-23T03:09:45;10.10;;;9.02;;
12900;SDS011;6518;50.930;5.344;2022-07-23T03:12:12;10.38;;;8.77;;
12900;SDS011;6518;50.930;5.344;2022-07-23T03:14:39;11.63;;;8.32;;
12900;SDS011;6518;50.930;5.344;2022-07-23T03:17:06;10.25;;;8.10;;
12900;SDS011;6518;50.930;5.344;2022-07-23T03:19:33;11.13;;;9.60;;
12900;SDS011;6518;50.930;5.344;2022-07-23T03:22:00;11.05;;;8.38;;
12900;SDS011;6518;50.930;5.344;2022-07-23T03:24:28;10.70;;;9.05;;
12900;SDS011;6518;50.930;5.344;2022-07-23T03:27:09;11.93;;;9.43;;
12900;SDS011;6518;50.930;5.344;2022-07-23T03:29:36;10.98;;;9.63;;
12900;SDS011;6518;50.930;5.344;2022-07-23T03:32:03;10.77;;;9.57;;
12900;SDS011;6518;50.930;5.344;2022-07-23T03:34:30;12.63;;;9.95;;
12900;SDS011;6518;50.930;5.344;2022-07-23T03:36:57;11.32;;;9.50;;
12900;SDS011;6518;50.930;5.344;2022-07-23T03:39:24;11.38;;;9.82;;
12900;SDS011;6518;50.930;5.344;2022-07-23T03:41:52;12.45;;;9.48;;
12900;SDS011;6518;50.930;5.344;2022-07-23T03:44:19;12.30;;;10.30;;
12900;SDS011;6518;50.930;5.344;2022-07-23T03:46:46;12.57;;;10.38;;
12900;SDS011;6518;50.930;5.344;2022-07-23T03:49:13;11.00;;;9.93;;
12900;SDS011;6518;50.930;5.344;2022-07-23T03:51:40;11.93;;;9.98;;
12900;SDS011;6518;50.930;5.344;2022-07-23T03:54:07;10.98;;;9.88;;
12900;SDS011;6518;50.930;5.344;2022-07-23T03:56:34;14.05;;;10.20;;
12900;SDS011;6518;50.930;5.344;2022-07-23T03:59:02;11.00;;;9.85;;
12900;SDS011;6518;50.930;5.344;2022-07-23T04:01:29;11.48;;;10.32;;
12900;SDS011;6518;50.930;5.344;2022-07-23T04:03:56;13.32;;;10.90;;
12900;SDS011;6518;50.930;5.344;2022-07-23T04:06:23;14.18;;;11.05;;
12900;SDS011;6518;50.930;5.344;2022-07-23T04:08:51;11.70;;;10.50;;
12900;SDS011;6518;50.930;5.344;2022-07-23T04:11:18;11.63;;;10.63;;
12900;SDS011;6518;50.930;5.344;2022-07-23T04:13:45;13.05;;;10.63;;
12900;SDS011;6518;50.930;5.344;2022-07-23T04:16:14;12.48;;;10.68;;
12900;SDS011;6518;50.930;5.344;2022-07-23T04:18:41;11.82;;;10.43;;
12900;SDS011;6518;50.930;5.344;2022-07-23T04:21:08;10.32;;;9.30;;
12900;SDS011;6518;50.930;5.344;2022-07-23T04:23:34;12.48;;;11.07;;
12900;SDS011;6518;50.930;5.344;2022-07-23T04:26:01;11.57;;;10.40;;
12900;SDS011;6518;50.930;5.344;2022-07-23T04:28:28;13.68;;;10.82;;
12900;SDS011;6518;50.930;5.344;2022-07-23T04:30:55;14.15;;;9.85;;
12900;SDS011;6518;50.930;5.344;2022-07-23T04:33:25;13.13;;;10.55;;
12900;SDS011;6518;50.930;5.344;2022-07-23T04:35:52;11.52;;;10.32;;
12900;SDS011;6518;50.930;5.344;2022-07-23T04:38:19;10.70;;;9.48;;
12900;SDS011;6518;50.930;5.344;2022-07-23T04:40:46;11.25;;;10.02;;
12900;SDS011;6518;50.930;5.344;2022-07-23T04:43:13;11.18;;;10.05;;
12900;SDS011;6518;50.930;5.344;2022-07-23T04:45:40;11.25;;;10.07;;
12900;SDS011;6518;50.930;5.344;2022-07-23T04:48:07;10.38;;;9.48;;
12900;SDS011;6518;50.930;5.344;2022-07-23T04:50:35;10.68;;;9.38;;
12900;SDS011;6518;50.930;5.344;2022-07-23T04:53:02;11.50;;;9.80;;
12900;SDS011;6518;50.930;5.344;2022-07-23T04:55:29;13.90;;;10.02;;
12900;SDS011;6518;50.930;5.344;2022-07-23T04:57:56;10.65;;;9.50;;
12900;SDS011;6518;50.930;5.344;2022-07-23T05:00:23;13.98;;;9.80;;
12900;SDS011;6518;50.930;5.344;2022-07-23T05:02:50;10.35;;;9.23;;
12900;SDS011;6518;50.930;5.344;2022-07-23T05:05:17;11.18;;;9.57;;
12900;SDS011;6518;50.930;5.344;2022-07-23T05:07:45;11.25;;;9.65;;
12900;SDS011;6518;50.930;5.344;2022-07-23T05:10:12;10.05;;;9.05;;
12900;SDS011;6518;50.930;5.344;2022-07-23T05:12:39;14.85;;;9.95;;
12900;SDS011;6518;50.930;5.344;2022-07-23T05:15:06;10.32;;;9.20;;
12900;SDS011;6518;50.930;5.344;2022-07-23T05:17:33;10.93;;;9.63;;
12900;SDS011;6518;50.930;5.344;2022-07-23T05:20:00;11.23;;;9.02;;
12900;SDS011;6518;50.930;5.344;2022-07-23T05:22:27;11.10;;;9.18;;
12900;SDS011;6518;50.930;5.344;2022-07-23T05:24:55;10.43;;;9.50;;
12900;SDS011;6518;50.930;5.344;2022-07-23T05:27:22;13.38;;;10.13;;
12900;SDS011;6518;50.930;5.344;2022-07-23T05:29:49;11.10;;;10.00;;
12900;SDS011;6518;50.930;5.344;2022-07-23T05:32:16;11.65;;;9.82;;
12900;SDS011;6518;50.930;5.344;2022-07-23T05:34:43;11.20;;;8.70;;
12900;SDS011;6518;50.930;5.344;2022-07-23T05:37:10;13.20;;;8.70;;
12900;SDS011;6518;50.930;5.344;2022-07-23T05:39:37;11.88;;;10.52;;
12900;SDS011;6518;50.930;5.344;2022-07-23T05:42:05;14.55;;;10.10;;
12900;SDS011;6518;50.930;5.344;2022-07-23T05:44:32;11.38;;;10.18;;
12900;SDS011;6518;50.930;5.344;2022-07-23T05:46:59;10.77;;;9.30;;
12900;SDS011;6518;50.930;5.344;2022-07-23T05:49:26;9.70;;;8.77;;
12900;SDS011;6518;50.930;5.344;2022-07-23T05:51:53;11.70;;;9.80;;
12900;SDS011;6518;50.930;5.344;2022-07-23T05:54:20;11.75;;;9.85;;
12900;SDS011;6518;50.930;5.344;2022-07-23T05:56:47;13.05;;;9.52;;
12900;SDS011;6518;50.930;5.344;2022-07-23T05:59:16;10.45;;;9.35;;
12900;SDS011;6518;50.930;5.344;2022-07-23T06:01:43;9.98;;;8.98;;
12900;SDS011;6518;50.930;5.344;2022-07-23T06:04:10;10.75;;;9.80;;
12900;SDS011;6518;50.930;5.344;2022-07-23T06:06:37;10.05;;;8.95;;
12900;SDS011;6518;50.930;5.344;2022-07-23T06:09:04;9.30;;;8.40;;
12900;SDS011;6518;50.930;5.344;2022-07-23T06:11:31;10.25;;;8.80;;
12900;SDS011;6518;50.930;5.344;2022-07-23T06:13:58;10.95;;;9.45;;
12900;SDS011;6518;50.930;5.344;2022-07-23T06:16:26;9.38;;;8.48;;
12900;SDS011;6518;50.930;5.344;2022-07-23T06:18:53;10.20;;;9.00;;
12900;SDS011;6518;50.930;5.344;2022-07-23T06:21:20;11.98;;;8.73;;
12900;SDS011;6518;50.930;5.344;2022-07-23T06:23:47;8.80;;;7.90;;
12900;SDS011;6518;50.930;5.344;2022-07-23T06:26:14;10.95;;;8.70;;
12900;SDS011;6518;50.930;5.344;2022-07-23T06:28:41;9.65;;;8.02;;
12900;SDS011;6518;50.930;5.344;2022-07-23T06:31:08;10.80;;;8.73;;
12900;SDS011;6518;50.930;5.344;2022-07-23T06:33:36;10.55;;;8.68;;
12900;SDS011;6518;50.930;5.344;2022-07-23T06:36:03;10.07;;;9.07;;
12900;SDS011;6518;50.930;5.344;2022-07-23T06:38:30;11.73;;;9.90;;
12900;SDS011;6518;50.930;5.344;2022-07-23T06:40:57;12.77;;;10.07;;
12900;SDS011;6518;50.930;5.344;2022-07-23T06:43:24;11.00;;;10.00;;
12900;SDS011;6518;50.930;5.344;2022-07-23T06:45:51;11.05;;;9.32;;
12900;SDS011;6518;50.930;5.344;2022-07-23T06:48:18;11.63;;;9.35;;
12900;SDS011;6518;50.930;5.344;2022-07-23T06:50:46;11.68;;;10.48;;
12900;SDS011;6518;50.930;5.344;2022-07-23T06:53:13;13.80;;;9.93;;
12900;SDS011;6518;50.930;5.344;2022-07-23T06:55:40;11.27;;;9.85;;
12900;SDS011;6518;50.930;5.344;2022-07-23T06:58:07;11.73;;;10.45;;
12900;SDS011;6518;50.930;5.344;2022-07-23T07:00:35;13.50;;;10.93;;
12900;SDS011;6518;50.930;5.344;2022-07-23T07:03:02;12.38;;;11.05;;
12900;SDS011;6518;50.930;5.344;2022-07-23T07:05:29;11.65;;;10.45;;
12900;SDS011;6518;50.930;5.344;2022-07-23T07:07:58;13.65;;;10.65;;
12900;SDS011;6518;50.930;5.344;2022-07-23T07:10:24;11.50;;;10.10;;
12900;SDS011;6518;50.930;5.344;2022-07-23T07:12:51;11.90;;;10.70;;
12900;SDS011;6518;50.930;5.344;2022-07-23T07:15:18;12.10;;;10.75;;
12900;SDS011;6518;50.930;5.344;2022-07-23T07:17:45;12.02;;;10.40;;
12900;SDS011;6518;50.930;5.344;2022-07-23T07:20:12;12.10;;;10.48;;
12900;SDS011;6518;50.930;5.344;2022-07-23T07:22:39;13.73;;;10.57;;
12900;SDS011;6518;50.930;5.344;2022-07-23T07:25:08;11.07;;;9.98;;
12900;SDS011;6518;50.930;5.344;2022-07-23T07:27:35;12.50;;;10.35;;
12900;SDS011;6518;50.930;5.344;2022-07-23T07:30:02;11.35;;;10.13;;
12900;SDS011;6518;50.930;5.344;2022-07-23T07:32:29;10.63;;;9.65;;
12900;SDS011;6518;50.930;5.344;2022-07-23T07:34:57;11.23;;;10.15;;
12900;SDS011;6518;50.930;5.344;2022-07-23T07:37:24;14.60;;;10.60;;
12900;SDS011;6518;50.930;5.344;2022-07-23T07:39:51;12.95;;;10.20;;
12900;SDS011;6518;50.930;5.344;2022-07-23T07:42:19;12.13;;;9.73;;
12900;SDS011;6518;50.930;5.344;2022-07-23T07:44:46;11.75;;;10.00;;
12900;SDS011;6518;50.930;5.344;2022-07-23T07:47:13;11.45;;;10.00;;
12900;SDS011;6518;50.930;5.344;2022-07-23T07:49:41;11.10;;;9.48;;
12900;SDS011;6518;50.930;5.344;2022-07-23T07:52:08;13.18;;;9.80;;
12900;SDS011;6518;50.930;5.344;2022-07-23T07:54:35;10.90;;;9.75;;
12900;SDS011;6518;50.930;5.344;2022-07-23T07:57:03;12.77;;;10.20;;
12900;SDS011;6518;50.930;5.344;2022-07-23T07:59:31;11.25;;;9.05;;
12900;SDS011;6518;50.930;5.344;2022-07-23T08:01:58;11.23;;;9.07;;
12900;SDS011;6518;50.930;5.344;2022-07-23T08:04:25;13.00;;;9.93;;
12900;SDS011;6518;50.930;5.344;2022-07-23T08:06:52;12.93;;;8.02;;
12900;SDS011;6518;50.930;5.344;2022-07-23T08:09:19;8.80;;;7.10;;
12900;SDS011;6518;50.930;5.344;2022-07-23T08:11:46;8.02;;;7.07;;
12900;SDS011;6518;50.930;5.344;2022-07-23T08:14:12;11.23;;;7.70;;
12900;SDS011;6518;50.930;5.344;2022-07-23T08:16:41;8.82;;;7.82;;
12900;SDS011;6518;50.930;5.344;2022-07-23T08:19:08;10.73;;;8.00;;
12900;SDS011;6518;50.930;5.344;2022-07-23T08:21:35;9.30;;;8.20;;
12900;SDS011;6518;50.930;5.344;2022-07-23T08:24:02;9.73;;;8.20;;
12900;SDS011;6518;50.930;5.344;2022-07-23T08:26:29;10.05;;;9.05;;
12900;SDS011;6518;50.930;5.344;2022-07-23T08:28:56;9.52;;;8.38;;
12900;SDS011;6518;50.930;5.344;2022-07-23T08:31:23;10.48;;;9.00;;
12900;SDS011;6518;50.930;5.344;2022-07-23T08:33:51;9.73;;;7.80;;
12900;SDS011;6518;50.930;5.344;2022-07-23T08:36:19;9.05;;;7.95;;
12900;SDS011;6518;50.930;5.344;2022-07-23T08:38:46;10.40;;;8.35;;
12900;SDS011;6518;50.930;5.344;2022-07-23T08:41:13;9.13;;;8.18;;
12900;SDS011;6518;50.930;5.344;2022-07-23T08:43:41;8.95;;;8.05;;
12900;SDS011;6518;50.930;5.344;2022-07-23T08:46:08;8.88;;;7.30;;
12900;SDS011;6518;50.930;5.344;2022-07-23T08:48:36;9.07;;;7.40;;
12900;SDS011;6518;50.930;5.344;2022-07-23T08:51:04;10.32;;;7.82;;
12900;SDS011;6518;50.930;5.344;2022-07-23T08:53:32;9.13;;;7.97;;
12900;SDS011;6518;50.930;5.344;2022-07-23T08:56:03;10.40;;;7.78;;
12900;SDS011;6518;50.930;5.344;2022-07-23T08:58:31;12.52;;;9.27;;
12900;SDS011;6518;50.930;5.344;2022-07-23T09:00:58;8.73;;;7.25;;
12900;SDS011;6518;50.930;5.344;2022-07-23T09:03:26;10.27;;;8.55;;
12900;SDS011;6518;50.930;5.344;2022-07-23T09:05:55;9.48;;;7.95;;
12900;SDS011;6518;50.930;5.344;2022-07-23T09:08:26;9.60;;;8.15;;
12900;SDS011;6518;50.930;5.344;2022-07-23T09:11:03;8.98;;;7.03;;
12900;SDS011;6518;50.930;5.344;2022-07-23T09:13:36;9.45;;;7.93;;
12900;SDS011;6518;50.930;5.344;2022-07-23T09:16:06;8.73;;;7.53;;
12900;SDS011;6518;50.930;5.344;2022-07-23T09:18:39;10.05;;;7.85;;
12900;SDS011;6518;50.930;5.344;2022-07-23T09:21:10;8.93;;;8.02;;
12900;SDS011;6518;50.930;5.344;2022-07-23T09:23:43;11.15;;;8.10;;
12900;SDS011;6518;50.930;5.344;2022-07-23T09:26:18;9.02;;;8.00;;
12900;SDS011;6518;50.930;5.344;2022-07-23T09:28:52;8.77;;;7.32;;
12900;SDS011;6518;50.930;5.344;2022-07-23T09:31:22;8.55;;;7.65;;
12900;SDS011;6518;50.930;5.344;2022-07-23T09:33:49;13.73;;;6.90;;
12900;SDS011;6518;50.930;5.344;2022-07-23T09:36:26;7.93;;;7.10;;
12900;SDS011;6518;50.930;5.344;2022-07-23T09:38:56;9.00;;;8.00;;
12900;SDS011;6518;50.930;5.344;2022-07-23T09:41:23;10.02;;;6.63;;
12900;SDS011;6518;50.930;5.344;2022-07-23T09:43:54;9.35;;;6.30;;
12900;SDS011;6518;50.930;5.344;2022-07-23T09:46:23;8.30;;;7.00;;
12900;SDS011;6518;50.930;5.344;2022-07-23T09:48:51;8.63;;;6.30;;
12900;SDS011;6518;50.930;5.344;2022-07-23T09:51:19;8.43;;;6.53;;
12900;SDS011;6518;50.930;5.344;2022-07-23T09:53:57;8.20;;;6.70;;
12900;SDS011;6518;50.930;5.344;2022-07-23T09:56:24;8.77;;;7.30;;
12900;SDS011;6518;50.930;5.344;2022-07-23T09:58:53;8.00;;;6.28;;
12900;SDS011;6518;50.930;5.344;2022-07-23T10:01:28;8.90;;;6.60;;
12900;SDS011;6518;50.930;5.344;2022-07-23T10:03:56;6.97;;;5.78;;
12900;SDS011;6518;50.930;5.344;2022-07-23T10:06:24;7.25;;;6.45;;
12900;SDS011;6518;50.930;5.344;2022-07-23T10:08:53;6.65;;;5.95;;
12900;SDS011;6518;50.930;5.344;2022-07-23T10:11:24;7.10;;;6.28;;
12900;SDS011;6518;50.930;5.344;2022-07-23T10:13:53;8.05;;;5.95;;
12900;SDS011;6518;50.930;5.344;2022-07-23T10:16:20;7.28;;;6.50;;
12900;SDS011;6518;50.930;5.344;2022-07-23T10:18:47;7.90;;;6.70;;
12900;SDS011;6518;50.930;5.344;2022-07-23T10:21:16;7.30;;;6.50;;
12900;SDS011;6518;50.930;5.344;2022-07-23T10:23:51;7.55;;;6.32;;
12900;SDS011;6518;50.930;5.344;2022-07-23T10:26:36;9.90;;;6.50;;
12900;SDS011;6518;50.930;5.344;2022-07-23T10:29:12;9.10;;;6.13;;
12900;SDS011;6518;50.930;5.344;2022-07-23T10:31:50;11.32;;;5.95;;
12900;SDS011;6518;50.930;5.344;2022-07-23T10:34:24;7.15;;;6.13;;
12900;SDS011;6518;50.930;5.344;2022-07-23T10:36:57;6.35;;;4.82;;
12900;SDS011;6518;50.930;5.344;2022-07-23T10:39:33;5.97;;;4.50;;
12900;SDS011;6518;50.930;5.344;2022-07-23T10:42:08;6.47;;;5.75;;
12900;SDS011;6518;50.930;5.344;2022-07-23T10:44:40;6.15;;;5.65;;
12900;SDS011;6518;50.930;5.344;2022-07-23T10:47:08;7.18;;;4.50;;
12900;SDS011;6518;50.930;5.344;2022-07-23T10:49:59;5.20;;;4.70;;
12900;SDS011;6518;50.930;5.344;2022-07-23T10:52:45;5.20;;;4.57;;
12900;SDS011;6518;50.930;5.344;2022-07-23T10:55:41;5.70;;;4.30;;
12900;SDS011;6518;50.930;5.344;2022-07-23T10:58:17;5.43;;;4.30;;
12900;SDS011;6518;50.930;5.344;2022-07-23T11:00:46;5.30;;;4.55;;
12900;SDS011;6518;50.930;5.344;2022-07-23T11:03:30;5.00;;;4.20;;
12900;SDS011;6518;50.930;5.344;2022-07-23T11:06:03;5.57;;;3.95;;
12900;SDS011;6518;50.930;5.344;2022-07-23T11:08:31;3.97;;;3.33;;
12900;SDS011;6518;50.930;5.344;2022-07-23T11:11:09;4.30;;;3.72;;
12900;SDS011;6518;50.930;5.344;2022-07-23T11:13:38;5.28;;;3.65;;
12900;SDS011;6518;50.930;5.344;2022-07-23T11:16:07;5.72;;;3.50;;
12900;SDS011;6518;50.930;5.344;2022-07-23T11:18:54;6.72;;;3.40;;
12900;SDS011;6518;50.930;5.344;2022-07-23T11:24:13;5.82;;;4.07;;
12900;SDS011;6518;50.930;5.344;2022-07-23T11:26:47;3.47;;;2.90;;
12900;SDS011;6518;50.930;5.344;2022-07-23T11:29:45;4.22;;;3.45;;
12900;SDS011;6518;50.930;5.344;2022-07-23T11:32:28;4.50;;;3.33;;
12900;SDS011;6518;50.930;5.344;2022-07-23T11:34:58;3.90;;;3.13;;
12900;SDS011;6518;50.930;5.344;2022-07-23T11:37:35;3.90;;;3.20;;
12900;SDS011;6518;50.930;5.344;2022-07-23T11:40:05;5.78;;;3.72;;
12900;SDS011;6518;50.930;5.344;2022-07-23T11:42:39;4.95;;;3.30;;
12900;SDS011;6518;50.930;5.344;2022-07-23T11:45:17;3.22;;;2.90;;
12900;SDS011;6518;50.930;5.344;2022-07-23T11:47:44;5.05;;;2.72;;
12900;SDS011;6518;50.930;5.344;2022-07-23T11:50:11;3.60;;;2.60;;
12900;SDS011;6518;50.930;5.344;2022-07-23T11:52:38;4.00;;;2.30;;
12900;SDS011;6518;50.930;5.344;2022-07-23T11:55:06;3.17;;;2.45;;
12900;SDS011;6518;50.930;5.344;2022-07-23T11:57:37;3.63;;;2.63;;
12900;SDS011;6518;50.930;5.344;2022-07-23T12:00:07;3.85;;;2.80;;
12900;SDS011;6518;50.930;5.344;2022-07-23T12:02:36;3.67;;;2.72;;
12900;SDS011;6518;50.930;5.344;2022-07-23T12:05:03;2.25;;;2.00;;
12900;SDS011;6518;50.930;5.344;2022-07-23T12:07:32;3.13;;;1.95;;
12900;SDS011;6518;50.930;5.344;2022-07-23T12:10:02;1.95;;;1.85;;
12900;SDS011;6518;50.930;5.344;2022-07-23T12:12:35;3.47;;;2.70;;
12900;SDS011;6518;50.930;5.344;2022-07-23T12:15:03;2.60;;;1.70;;
12900;SDS011;6518;50.930;5.344;2022-07-23T12:17:33;4.22;;;2.00;;
12900;SDS011;6518;50.930;5.344;2022-07-23T12:20:02;2.97;;;1.75;;
12900;SDS011;6518;50.930;5.344;2022-07-23T12:22:42;2.20;;;1.95;;
12900;SDS011;6518;50.930;5.344;2022-07-23T12:25:14;2.25;;;1.67;;
12900;SDS011;6518;50.930;5.344;2022-07-23T12:27:42;2.05;;;1.60;;
12900;SDS011;6518;50.930;5.344;2022-07-23T12:30:16;3.00;;;1.60;;
12900;SDS011;6518;50.930;5.344;2022-07-23T12:32:46;3.28;;;1.63;;
12900;SDS011;6518;50.930;5.344;2022-07-23T12:35:15;2.00;;;1.63;;
12900;SDS011;6518;50.930;5.344;2022-07-23T12:37:43;3.25;;;2.00;;
12900;SDS011;6518;50.930;5.344;2022-07-23T12:40:17;2.83;;;1.77;;
12900;SDS011;6518;50.930;5.344;2022-07-23T12:42:49;2.90;;;2.28;;
12900;SDS011;6518;50.930;5.344;2022-07-23T12:45:17;2.38;;;2.05;;
12900;SDS011;6518;50.930;5.344;2022-07-23T12:47:56;2.72;;;1.90;;
12900;SDS011;6518;50.930;5.344;2022-07-23T12:50:35;1.95;;;1.77;;
12900;SDS011;6518;50.930;5.344;2022-07-23T12:53:05;2.45;;;1.88;;
12900;SDS011;6518;50.930;5.344;2022-07-23T12:55:34;2.05;;;1.85;;
12900;SDS011;6518;50.930;5.344;2022-07-23T12:58:06;2.90;;;1.70;;
12900;SDS011;6518;50.930;5.344;2022-07-23T13:00:52;4.50;;;2.10;;
12900;SDS011;6518;50.930;5.344;2022-07-23T13:03:29;2.97;;;1.90;;
12900;SDS011;6518;50.930;5.344;2022-07-23T13:06:01;8.52;;;2.25;;
12900;SDS011;6518;50.930;5.344;2022-07-23T13:08:30;2.95;;;2.00;;
12900;SDS011;6518;50.930;5.344;2022-07-23T13:10:58;2.50;;;2.20;;
12900;SDS011;6518;50.930;5.344;2022-07-23T13:13:27;2.28;;;1.90;;
12900;SDS011;6518;50.930;5.344;2022-07-23T13:15:55;3.33;;;2.20;;
12900;SDS011;6518;50.930;5.344;2022-07-23T13:18:23;5.18;;;2.05;;
12900;SDS011;6518;50.930;5.344;2022-07-23T13:20:52;3.15;;;1.80;;
12900;SDS011;6518;50.930;5.344;2022-07-23T13:23:19;2.95;;;1.70;;
12900;SDS011;6518;50.930;5.344;2022-07-23T13:25:47;3.20;;;1.95;;
12900;SDS011;6518;50.930;5.344;2022-07-23T13:28:15;2.30;;;1.92;;
12900;SDS011;6518;50.930;5.344;2022-07-23T13:30:43;2.90;;;2.30;;
12900;SDS011;6518;50.930;5.344;2022-07-23T13:33:11;2.50;;;1.85;;
12900;SDS011;6518;50.930;5.344;2022-07-23T13:35:38;2.80;;;2.08;;
12900;SDS011;6518;50.930;5.344;2022-07-23T13:38:06;2.40;;;2.20;;
12900;SDS011;6518;50.930;5.344;2022-07-23T13:40:34;3.25;;;2.30;;
12900;SDS011;6518;50.930;5.344;2022-07-23T13:43:04;2.78;;;2.05;;
12900;SDS011;6518;50.930;5.344;2022-07-23T13:45:31;2.58;;;2.10;;
12900;SDS011;6518;50.930;5.344;2022-07-23T13:47:59;2.28;;;2.08;;
12900;SDS011;6518;50.930;5.344;2022-07-23T13:50:26;2.95;;;2.10;;
12900;SDS011;6518;50.930;5.344;2022-07-23T13:52:53;2.63;;;1.95;;
12900;SDS011;6518;50.930;5.344;2022-07-23T13:55:23;2.67;;;2.47;;
12900;SDS011;6518;50.930;5.344;2022-07-23T13:57:50;3.38;;;2.42;;
12900;SDS011;6518;50.930;5.344;2022-07-23T14:00:17;2.72;;;2.15;;
12900;SDS011;6518;50.930;5.344;2022-07-23T14:02:44;2.20;;;1.90;;
12900;SDS011;6518;50.930;5.344;2022-07-23T14:05:10;3.05;;;2.30;;
12900;SDS011;6518;50.930;5.344;2022-07-23T14:07:38;3.58;;;2.30;;
12900;SDS011;6518;50.930;5.344;2022-07-23T14:10:07;2.78;;;2.40;;
12900;SDS011;6518;50.930;5.344;2022-07-23T14:12:36;2.67;;;2.33;;
12900;SDS011;6518;50.930;5.344;2022-07-23T14:15:03;3.03;;;2.60;;
12900;SDS011;6518;50.930;5.344;2022-07-23T14:17:31;2.47;;;2.25;;
12900;SDS011;6518;50.930;5.344;2022-07-23T14:19:59;2.75;;;2.30;;
12900;SDS011;6518;50.930;5.344;2022-07-23T14:22:26;3.25;;;2.63;;
12900;SDS011;6518;50.930;5.344;2022-07-23T14:24:53;3.60;;;2.65;;
12900;SDS011;6518;50.930;5.344;2022-07-23T14:27:22;3.92;;;2.47;;
12900;SDS011;6518;50.930;5.344;2022-07-23T14:29:52;3.75;;;2.35;;
12900;SDS011;6518;50.930;5.344;2022-07-23T14:32:19;2.92;;;2.53;;
12900;SDS011;6518;50.930;5.344;2022-07-23T14:34:46;3.75;;;2.38;;
12900;SDS011;6518;50.930;5.344;2022-07-23T14:37:13;2.75;;;2.28;;
12900;SDS011;6518;50.930;5.344;2022-07-23T14:39:42;3.60;;;2.60;;
12900;SDS011;6518;50.930;5.344;2022-07-23T14:42:10;2.85;;;2.35;;
12900;SDS011;6518;50.930;5.344;2022-07-23T14:44:37;3.63;;;2.42;;
12900;SDS011;6518;50.930;5.344;2022-07-23T14:47:06;6.53;;;2.92;;
12900;SDS011;6518;50.930;5.344;2022-07-23T14:49:33;2.70;;;2.50;;
12900;SDS011;6518;50.930;5.344;2022-07-23T14:52:01;3.60;;;2.47;;
12900;SDS011;6518;50.930;5.344;2022-07-23T14:54:28;2.47;;;2.20;;
12900;SDS011;6518;50.930;5.344;2022-07-23T14:56:56;2.92;;;2.55;;
12900;SDS011;6518;50.930;5.344;2022-07-23T14:59:24;4.97;;;3.08;;
12900;SDS011;6518;50.930;5.344;2022-07-23T15:01:51;2.55;;;2.35;;
12900;SDS011;6518;50.930;5.344;2022-07-23T15:04:20;2.70;;;2.50;;